Coral Electra — PCAG — position and weather

sailwx.info

Track history (hours):
 
Tides and Currents Weather Stations Pressure Air Temp Water Temp Dewpoint Dewpoint Depression Visibility Wind Speed Wind Dir Waves Ship Positions

Coral Electra

Last reported at 2015-Aug-28 01:32 UTC. Time now 2015-Aug-28 02:15 UTC.
Position N 53°27' E 006°50'.

Length 14 m.

Type: Port tender. MMSI: 244690019.

Date/timePositionNaut miles runAvg speedWind from/ knotsBaromVisibWave heightAir tempDewpointWater temp
2015-Aug-28 01:32N 53°27' E 006°50'0 0.0
2015-Aug-28 00:31N 53°27' E 006°50'0 0.0
2015-Aug-27 23:33N 53°27' E 006°50'0 0.0
2015-Aug-27 22:32N 53°27' E 006°50'0 0.0
2015-Aug-27 21:31N 53°27' E 006°50'5 5.5
2015-Aug-27 20:33N 53°30' E 006°43'5 5.2
2015-Aug-27 19:33N 53°27' E 006°50'0 0.0
2015-Aug-27 18:33N 53°27' E 006°50'0 0.3
2015-Aug-27 17:33N 53°27' E 006°49'2 1.8
2015-Aug-27 16:33N 53°28' E 006°48'2 2.0
2015-Aug-27 15:32N 53°27' E 006°50'0 0.0
2015-Aug-27 14:31N 53°27' E 006°50'0 0.0
2015-Aug-27 13:25N 53°27' E 006°50'6 6.7
2015-Aug-27 12:33N 53°30' E 006°42'3 3.4
2015-Aug-27 11:31N 53°33' E 006°38'0 0.0
2015-Aug-27 10:12N 53°33' E 006°38'2 3.0
2015-Aug-27 09:24N 53°31' E 006°41'7 7.8
2015-Aug-27 08:33N 53°27' E 006°49'0 0.1
2015-Aug-27 07:32N 53°27' E 006°50'0 0.0
2015-Aug-27 06:33N 53°27' E 006°50'0 0.3
2015-Aug-27 05:32N 53°27' E 006°49'2 2.2
2015-Aug-27 04:33N 53°29' E 006°47'2 2.4
2015-Aug-27 03:32N 53°27' E 006°50'0 0.0
2015-Aug-27 02:32N 53°27' E 006°50'0 0.0
2015-Aug-27 01:30N 53°27' E 006°50'0 0.0
2015-Aug-27 00:31N 53°27' E 006°50'0 0.0
2015-Aug-26 23:33N 53°27' E 006°50'0 0.0
2015-Aug-26 22:31N 53°27' E 006°50'0 0.0
2015-Aug-26 21:30N 53°27' E 006°50'0 0.0
2015-Aug-26 20:33N 53°27' E 006°50'0 0.0
2015-Aug-26 19:31N 53°27' E 006°50'0 0.0
2015-Aug-26 18:33N 53°27' E 006°50'0 0.1
2015-Aug-26 17:33N 53°27' E 006°50'2 2.1
2015-Aug-26 16:33N 53°29' E 006°48'2 2.1
2015-Aug-26 15:33N 53°27' E 006°50'9 8.6
2015-Aug-26 14:29N 53°33' E 006°38'0 0.0
2015-Aug-26 12:33N 53°33' E 006°38'0 0.1
2015-Aug-26 11:05N 53°33' E 006°38'9 5.9
2015-Aug-26 09:33N 53°27' E 006°50'1 0.8
2015-Aug-26 08:31N 53°27' E 006°50'0 0.0
2015-Aug-26 07:33N 53°27' E 006°50'0 0.0
2015-Aug-26 06:31N 53°27' E 006°50'0 0.1
2015-Aug-26 05:33N 53°27' E 006°49'2 1.7
2015-Aug-26 04:33N 53°28' E 006°48'2 1.8
2015-Aug-26 03:31N 53°27' E 006°50'0 0.0
2015-Aug-26 02:34N 53°27' E 006°50'0 0.0
2015-Aug-26 01:31N 53°27' E 006°50'0 0.0
2015-Aug-26 00:33N 53°27' E 006°50'0 0.0
2015-Aug-25 23:32N 53°27' E 006°50'0 0.0
2015-Aug-25 22:34N 53°27' E 006°50'0 0.0
2015-Aug-25 21:32N 53°27' E 006°50'0 0.0
2015-Aug-25 20:31N 53°27' E 006°50'0 0.0
2015-Aug-25 19:33N 53°27' E 006°50'0 0.0
2015-Aug-25 18:33N 53°27' E 006°50'0 0.3
2015-Aug-25 17:33N 53°27' E 006°49'3 3.3
2015-Aug-25 16:33N 53°30' E 006°46'4 3.5
2015-Aug-25 15:33N 53°27' E 006°50'0 0.0
2015-Aug-25 09:32N 53°27' E 006°50'0 0.1
2015-Aug-25 08:28N 53°27' E 006°50'0 0.0
2015-Aug-25 07:32N 53°27' E 006°50'0 0.0
2015-Aug-25 06:28N 53°27' E 006°50'0 0.1
2015-Aug-25 05:33N 53°27' E 006°49'1 1.1
2015-Aug-25 04:33N 53°28' E 006°50'1 1.2
2015-Aug-25 03:32N 53°27' E 006°50'0 0.0
2015-Aug-25 02:33N 53°27' E 006°50'0 0.0
2015-Aug-25 01:29N 53°27' E 006°50'0 0.0
2015-Aug-25 00:32N 53°27' E 006°50'0 0.0
2015-Aug-24 23:33N 53°27' E 006°50'0 0.0
2015-Aug-24 22:28N 53°27' E 006°50'0 0.0
2015-Aug-24 21:32N 53°27' E 006°50'0 0.0
2015-Aug-24 20:28N 53°27' E 006°50'0 0.0
2015-Aug-24 19:33N 53°27' E 006°50'0 0.0
2015-Aug-24 18:33N 53°27' E 006°50'0 0.3
2015-Aug-24 17:33N 53°27' E 006°49'7 6.6
2015-Aug-24 16:32N 53°32' E 006°41'7 7.0
2015-Aug-24 15:31N 53°27' E 006°50'0 0.0
2015-Aug-24 14:33N 53°27' E 006°50'0 0.0
2015-Aug-24 13:28N 53°27' E 006°50'0 0.0
2015-Aug-24 12:27N 53°27' E 006°50'0 0.0
2015-Aug-24 11:33N 53°27' E 006°50'0 0.0
2015-Aug-24 10:33N 53°27' E 006°50'8 6.9
2015-Aug-24 09:26N 53°32' E 006°40'7 8.5
2015-Aug-24 08:33N 53°27' E 006°49'5 4.9
2015-Aug-24 07:33N 53°31' E 006°44'5 5.2
2015-Aug-24 06:33N 53°27' E 006°50'0 0.0
2015-Aug-24 05:32N 53°27' E 006°50'6 6.5
2015-Aug-24 04:33N 53°31' E 006°42'6 5.3
2015-Aug-24 03:21N 53°27' E 006°50'0 0.0
2015-Aug-24 02:31N 53°27' E 006°50'0 0.0
2015-Aug-24 01:29N 53°27' E 006°50'0 0.0
2015-Aug-24 00:32N 53°27' E 006°50'0 0.0
2015-Aug-23 23:32N 53°27' E 006°50'0 0.0
2015-Aug-23 22:32N 53°27' E 006°50'0 0.0
2015-Aug-23 21:32N 53°27' E 006°50'0 0.0
2015-Aug-23 20:32N 53°27' E 006°50'7 7.2
2015-Aug-23 19:33N 53°32' E 006°41'2 2.0
2015-Aug-23 18:33N 53°33' E 006°38'1 0.3
2015-Aug-23 15:30N 53°33' E 006°40'1 0.3
2015-Aug-23 13:08N 53°33' E 006°38'0 0.3
2015-Aug-23 12:33N 53°33' E 006°39'9 8.5
2015-Aug-23 11:32N 53°27' E 006°49'7 6.2
2015-Aug-23 10:24N 53°33' E 006°44'4 3.9
2015-Aug-23 09:25N 53°33' E 006°38'6 7.2
2015-Aug-23 08:33N 53°29' E 006°46'3 1.3
2015-Aug-23 06:33N 53°28' E 006°50'1 1.2
2015-Aug-23 05:33N 53°28' E 006°48'6 5.3
2015-Aug-23 04:30N 53°32' E 006°41'7 6.8
2015-Aug-23 03:26N 53°27' E 006°50'8 8.5
2015-Aug-23 02:33N 53°33' E 006°43'3 0.9
2015-Aug-22 23:21N 53°33' E 006°38'1 1.5
2015-Aug-22 22:33N 53°32' E 006°40'8 8.1
2015-Aug-22 21:33N 53°27' E 006°50'9 8.0
2015-Aug-22 20:25N 53°33' E 006°38'0 0.0
2015-Aug-22 19:27N 53°33' E 006°38'910.2
2015-Aug-22 18:33N 53°27' E 006°50'0 0.1
2015-Aug-22 17:33N 53°27' E 006°50'9 8.6
2015-Aug-22 16:31N 53°33' E 006°39'9 9.2
2015-Aug-22 15:33N 53°27' E 006°49'9 2.8
2015-Aug-22 12:22N 53°33' E 006°38'0 0.0
2015-Aug-22 11:31N 53°33' E 006°38'0 0.0
2015-Aug-22 10:12N 53°33' E 006°38'913.8
2015-Aug-22 09:33N 53°27' E 006°49'9 8.5
2015-Aug-22 08:30N 53°33' E 006°38'0 0.0
2015-Aug-22 07:28N 53°33' E 006°38'6 6.3
2015-Aug-22 06:33N 53°29' E 006°46'3 3.3
2015-Aug-22 05:33N 53°27' E 006°49'8 7.5
2015-Aug-22 04:33N 53°32' E 006°40'8 7.5
2015-Aug-22 03:31N 53°27' E 006°50'9 9.5
2015-Aug-22 02:33N 53°33' E 006°38'0 0.0
2015-Aug-22 01:28N 53°33' E 006°38'0 0.0
2015-Aug-22 00:28N 53°33' E 006°38'4 4.8
2015-Aug-21 23:33N 53°30' E 006°43'5 4.7
2015-Aug-21 22:33N 53°27' E 006°50'9 9.1
2015-Aug-21 21:32N 53°33' E 006°38'0 0.0
2015-Aug-21 20:23N 53°33' E 006°38'0 0.0
2015-Aug-21 19:18N 53°33' E 006°38'0 0.0
2015-Aug-21 18:32N 53°33' E 006°38'6 6.1
2015-Aug-21 17:33N 53°29' E 006°47'2 2.1
2015-Aug-21 16:33N 53°31' E 006°44'5 5.2
2015-Aug-21 15:33N 53°27' E 006°49'8 8.1
2015-Aug-21 14:32N 53°32' E 006°40'1 0.8
2015-Aug-21 13:18N 53°33' E 006°38'0 0.0
2015-Aug-21 12:27N 53°33' E 006°38'0 0.0
2015-Aug-21 11:15N 53°33' E 006°38'912.5
2015-Aug-21 10:33N 53°27' E 006°49'9 8.7
2015-Aug-21 09:32N 53°33' E 006°38'0 0.0
2015-Aug-21 08:28N 53°33' E 006°38'0 0.0
2015-Aug-21 07:24N 53°33' E 006°38'0 0.0
2015-Aug-21 06:31N 53°33' E 006°38'9 9.2
2015-Aug-21 05:33N 53°27' E 006°49'7 7.2
2015-Aug-21 04:33N 53°32' E 006°41'8 7.6
2015-Aug-21 03:33N 53°27' E 006°50'8 8.2
2015-Aug-21 02:33N 53°33' E 006°40'1 0.8
2015-Aug-21 01:17N 53°33' E 006°38'0 0.0
2015-Aug-21 00:31N 53°33' E 006°38'0 0.1
2015-Aug-20 23:28N 53°33' E 006°38'9 9.8
2015-Aug-20 22:33N 53°27' E 006°49'9 2.9
2015-Aug-20 19:28N 53°33' E 006°38'910.1
2015-Aug-20 18:33N 53°27' E 006°50'0 0.4
2015-Aug-20 17:33N 53°27' E 006°50'9 8.5
2015-Aug-20 16:33N 53°33' E 006°39'8 8.3
2015-Aug-20 15:32N 53°27' E 006°49'9 9.3
2015-Aug-20 14:33N 53°33' E 006°38'0 0.0
2015-Aug-20 13:08N 53°33' E 006°38'6 3.6
2015-Aug-20 11:33N 53°29' E 006°45'6 5.3
2015-Aug-20 10:30N 53°33' E 006°38'0 0.0
2015-Aug-20 09:20N 53°33' E 006°38'0 0.0
2015-Aug-20 07:33N 53°33' E 006°38'0 0.2
2015-Aug-20 06:33N 53°33' E 006°38'9 8.8
2015-Aug-20 05:33N 53°27' E 006°49'7 7.1
2015-Aug-20 04:33N 53°32' E 006°41'7 7.1
2015-Aug-20 03:30N 53°27' E 006°50'9 9.1
2015-Aug-20 02:30N 53°33' E 006°38'0 0.0
2015-Aug-20 01:30N 53°33' E 006°38'0 0.0
2015-Aug-20 00:29N 53°33' E 006°38'0 0.0
2015-Aug-19 23:22N 53°33' E 006°38'0 0.0
2015-Aug-19 21:28N 53°33' E 006°38'9 9.4
2015-Aug-19 20:31N 53°27' E 006°49'0 0.3
2015-Aug-19 19:32N 53°27' E 006°50'0 0.0
2015-Aug-19 18:30N 53°27' E 006°50'2 1.9
2015-Aug-19 17:33N 53°28' E 006°49'4 4.4
2015-Aug-19 16:33N 53°31' E 006°43'6 5.3
2015-Aug-19 15:26N 53°27' E 006°50'910.2
2015-Aug-19 14:33N 53°33' E 006°38'0 0.1
2015-Aug-19 12:32N 53°33' E 006°39'0 0.2
2015-Aug-19 11:32N 53°33' E 006°38'5 5.2
2015-Aug-19 10:33N 53°29' E 006°44'5 3.6
2015-Aug-19 09:09N 53°33' E 006°38'915.0
2015-Aug-19 08:33N 53°28' E 006°50'1 1.0
2015-Aug-19 07:31N 53°27' E 006°49'0 0.2
2015-Aug-19 06:25N 53°27' E 006°50'0 0.3
2015-Aug-19 05:33N 53°27' E 006°49'5 4.9
2015-Aug-19 04:33N 53°30' E 006°43'5 5.2
2015-Aug-19 03:33N 53°27' E 006°50'0 0.0
2015-Aug-19 02:33N 53°27' E 006°50'9 8.3
2015-Aug-19 01:30N 53°33' E 006°39'0 0.0
2015-Aug-19 00:30N 53°33' E 006°39'0 0.0
2015-Aug-18 23:32N 53°33' E 006°39'0 0.0
2015-Aug-18 22:32N 53°33' E 006°39'0 0.1
2015-Aug-18 21:32N 53°33' E 006°39'0 0.1
2015-Aug-18 20:32N 53°33' E 006°39'9 8.8
2015-Aug-18 19:33N 53°27' E 006°49'0 0.0
2015-Aug-18 18:33N 53°27' E 006°49'1 1.4
2015-Aug-18 17:33N 53°28' E 006°49'7 6.7
2015-Aug-18 16:32N 53°32' E 006°40'8 8.0
2015-Aug-18 15:33N 53°27' E 006°50'2 0.3
2015-Aug-18 09:33N 53°28' E 006°48'4 4.0
2015-Aug-18 08:33N 53°31' E 006°43'6 5.6
2015-Aug-18 07:33N 53°27' E 006°49'0 0.2
2015-Aug-18 06:29N 53°27' E 006°49'0 0.0
2015-Aug-18 05:30N 53°27' E 006°49'8 8.2
2015-Aug-18 04:32N 53°33' E 006°40'824.0
2015-Aug-18 04:11N 53°27' E 006°50'0 6.8
2015-Aug-18 04:08N 53°27' E 006°49'0 0.2
2015-Aug-18 03:31N 53°27' E 006°50'0 0.2
2015-Aug-18 02:33N 53°27' E 006°50'9 8.7
2015-Aug-18 01:33N 53°33' E 006°40'  
Track history (hours):
 
Tides and Currents Weather Stations Pressure Air Temp Water Temp Dewpoint Dewpoint Depression Visibility Wind Speed Wind Dir Waves Ship Positions

Coral Electra

Last reported at 2015-Aug-28 01:32 UTC. Time now 2015-Aug-28 02:15 UTC.
Position N 53°27' E 006°50'.

Length 14 m.

Type: Port tender. MMSI: 244690019.

Date/timePositionNaut miles runAvg speedWind from/ knotsBaromVisibWave heightAir tempDewpointWater temp
2015-Aug-28 01:32N 53°27' E 006°50'0 0.0
2015-Aug-28 00:31N 53°27' E 006°50'0 0.0
2015-Aug-27 23:33N 53°27' E 006°50'0 0.0
2015-Aug-27 22:32N 53°27' E 006°50'0 0.0
2015-Aug-27 21:31N 53°27' E 006°50'5 5.5
2015-Aug-27 20:33N 53°30' E 006°43'5 5.2
2015-Aug-27 19:33N 53°27' E 006°50'0 0.0
2015-Aug-27 18:33N 53°27' E 006°50'0 0.3
2015-Aug-27 17:33N 53°27' E 006°49'2 1.8
2015-Aug-27 16:33N 53°28' E 006°48'2 2.0
2015-Aug-27 15:32N 53°27' E 006°50'0 0.0
2015-Aug-27 14:31N 53°27' E 006°50'0 0.0
2015-Aug-27 13:25N 53°27' E 006°50'6 6.7
2015-Aug-27 12:33N 53°30' E 006°42'3 3.4
2015-Aug-27 11:31N 53°33' E 006°38'0 0.0
2015-Aug-27 10:12N 53°33' E 006°38'2 3.0
2015-Aug-27 09:24N 53°31' E 006°41'7 7.8
2015-Aug-27 08:33N 53°27' E 006°49'0 0.1
2015-Aug-27 07:32N 53°27' E 006°50'0 0.0
2015-Aug-27 06:33N 53°27' E 006°50'0 0.3
2015-Aug-27 05:32N 53°27' E 006°49'2 2.2
2015-Aug-27 04:33N 53°29' E 006°47'2 2.4
2015-Aug-27 03:32N 53°27' E 006°50'0 0.0
2015-Aug-27 02:32N 53°27' E 006°50'0 0.0
2015-Aug-27 01:30N 53°27' E 006°50'0 0.0
2015-Aug-27 00:31N 53°27' E 006°50'0 0.0
2015-Aug-26 23:33N 53°27' E 006°50'0 0.0
2015-Aug-26 22:31N 53°27' E 006°50'0 0.0
2015-Aug-26 21:30N 53°27' E 006°50'0 0.0
2015-Aug-26 20:33N 53°27' E 006°50'0 0.0
2015-Aug-26 19:31N 53°27' E 006°50'0 0.0
2015-Aug-26 18:33N 53°27' E 006°50'0 0.1
2015-Aug-26 17:33N 53°27' E 006°50'2 2.1
2015-Aug-26 16:33N 53°29' E 006°48'2 2.1
2015-Aug-26 15:33N 53°27' E 006°50'9 8.6
2015-Aug-26 14:29N 53°33' E 006°38'0 0.0
2015-Aug-26 12:33N 53°33' E 006°38'0 0.1
2015-Aug-26 11:05N 53°33' E 006°38'9 5.9
2015-Aug-26 09:33N 53°27' E 006°50'1 0.8
2015-Aug-26 08:31N 53°27' E 006°50'0 0.0
2015-Aug-26 07:33N 53°27' E 006°50'0 0.0
2015-Aug-26 06:31N 53°27' E 006°50'0 0.1
2015-Aug-26 05:33N 53°27' E 006°49'2 1.7
2015-Aug-26 04:33N 53°28' E 006°48'2 1.8
2015-Aug-26 03:31N 53°27' E 006°50'0 0.0
2015-Aug-26 02:34N 53°27' E 006°50'0 0.0
2015-Aug-26 01:31N 53°27' E 006°50'0 0.0
2015-Aug-26 00:33N 53°27' E 006°50'0 0.0
2015-Aug-25 23:32N 53°27' E 006°50'0 0.0
2015-Aug-25 22:34N 53°27' E 006°50'0 0.0
2015-Aug-25 21:32N 53°27' E 006°50'0 0.0
2015-Aug-25 20:31N 53°27' E 006°50'0 0.0
2015-Aug-25 19:33N 53°27' E 006°50'0 0.0
2015-Aug-25 18:33N 53°27' E 006°50'0 0.3
2015-Aug-25 17:33N 53°27' E 006°49'3 3.3
2015-Aug-25 16:33N 53°30' E 006°46'4 3.5
2015-Aug-25 15:33N 53°27' E 006°50'0 0.0
2015-Aug-25 09:32N 53°27' E 006°50'0 0.1
2015-Aug-25 08:28N 53°27' E 006°50'0 0.0
2015-Aug-25 07:32N 53°27' E 006°50'0 0.0
2015-Aug-25 06:28N 53°27' E 006°50'0 0.1
2015-Aug-25 05:33N 53°27' E 006°49'1 1.1
2015-Aug-25 04:33N 53°28' E 006°50'1 1.2
2015-Aug-25 03:32N 53°27' E 006°50'0 0.0
2015-Aug-25 02:33N 53°27' E 006°50'0 0.0
2015-Aug-25 01:29N 53°27' E 006°50'0 0.0
2015-Aug-25 00:32N 53°27' E 006°50'0 0.0
2015-Aug-24 23:33N 53°27' E 006°50'0 0.0
2015-Aug-24 22:28N 53°27' E 006°50'0 0.0
2015-Aug-24 21:32N 53°27' E 006°50'0 0.0
2015-Aug-24 20:28N 53°27' E 006°50'0 0.0
2015-Aug-24 19:33N 53°27' E 006°50'0 0.0
2015-Aug-24 18:33N 53°27' E 006°50'0 0.3
2015-Aug-24 17:33N 53°27' E 006°49'7 6.6
2015-Aug-24 16:32N 53°32' E 006°41'7 7.0
2015-Aug-24 15:31N 53°27' E 006°50'0 0.0
2015-Aug-24 14:33N 53°27' E 006°50'0 0.0
2015-Aug-24 13:28N 53°27' E 006°50'0 0.0
2015-Aug-24 12:27N 53°27' E 006°50'0 0.0
2015-Aug-24 11:33N 53°27' E 006°50'0 0.0
2015-Aug-24 10:33N 53°27' E 006°50'8 6.9
2015-Aug-24 09:26N 53°32' E 006°40'7 8.5
2015-Aug-24 08:33N 53°27' E 006°49'5 4.9
2015-Aug-24 07:33N 53°31' E 006°44'5 5.2
2015-Aug-24 06:33N 53°27' E 006°50'0 0.0
2015-Aug-24 05:32N 53°27' E 006°50'6 6.5
2015-Aug-24 04:33N 53°31' E 006°42'6 5.3
2015-Aug-24 03:21N 53°27' E 006°50'0 0.0
2015-Aug-24 02:31N 53°27' E 006°50'0 0.0
2015-Aug-24 01:29N 53°27' E 006°50'0 0.0
2015-Aug-24 00:32N 53°27' E 006°50'0 0.0
2015-Aug-23 23:32N 53°27' E 006°50'0 0.0
2015-Aug-23 22:32N 53°27' E 006°50'0 0.0
2015-Aug-23 21:32N 53°27' E 006°50'0 0.0
2015-Aug-23 20:32N 53°27' E 006°50'7 7.2
2015-Aug-23 19:33N 53°32' E 006°41'2 2.0
2015-Aug-23 18:33N 53°33' E 006°38'1 0.3
2015-Aug-23 15:30N 53°33' E 006°40'1 0.3
2015-Aug-23 13:08N 53°33' E 006°38'0 0.3
2015-Aug-23 12:33N 53°33' E 006°39'9 8.5
2015-Aug-23 11:32N 53°27' E 006°49'7 6.2
2015-Aug-23 10:24N 53°33' E 006°44'4 3.9
2015-Aug-23 09:25N 53°33' E 006°38'6 7.2
2015-Aug-23 08:33N 53°29' E 006°46'3 1.3
2015-Aug-23 06:33N 53°28' E 006°50'1 1.2
2015-Aug-23 05:33N 53°28' E 006°48'6 5.3
2015-Aug-23 04:30N 53°32' E 006°41'7 6.8
2015-Aug-23 03:26N 53°27' E 006°50'8 8.5
2015-Aug-23 02:33N 53°33' E 006°43'3 0.9
2015-Aug-22 23:21N 53°33' E 006°38'1 1.5
2015-Aug-22 22:33N 53°32' E 006°40'8 8.1
2015-Aug-22 21:33N 53°27' E 006°50'9 8.0
2015-Aug-22 20:25N 53°33' E 006°38'0 0.0
2015-Aug-22 19:27N 53°33' E 006°38'910.2
2015-Aug-22 18:33N 53°27' E 006°50'0 0.1
2015-Aug-22 17:33N 53°27' E 006°50'9 8.6
2015-Aug-22 16:31N 53°33' E 006°39'9 9.2
2015-Aug-22 15:33N 53°27' E 006°49'9 2.8
2015-Aug-22 12:22N 53°33' E 006°38'0 0.0
2015-Aug-22 11:31N 53°33' E 006°38'0 0.0
2015-Aug-22 10:12N 53°33' E 006°38'913.8
2015-Aug-22 09:33N 53°27' E 006°49'9 8.5
2015-Aug-22 08:30N 53°33' E 006°38'0 0.0
2015-Aug-22 07:28N 53°33' E 006°38'6 6.3
2015-Aug-22 06:33N 53°29' E 006°46'3 3.3
2015-Aug-22 05:33N 53°27' E 006°49'8 7.5
2015-Aug-22 04:33N 53°32' E 006°40'8 7.5
2015-Aug-22 03:31N 53°27' E 006°50'9 9.5
2015-Aug-22 02:33N 53°33' E 006°38'0 0.0
2015-Aug-22 01:28N 53°33' E 006°38'0 0.0
2015-Aug-22 00:28N 53°33' E 006°38'4 4.8
2015-Aug-21 23:33N 53°30' E 006°43'5 4.7
2015-Aug-21 22:33N 53°27' E 006°50'9 9.1
2015-Aug-21 21:32N 53°33' E 006°38'0 0.0
2015-Aug-21 20:23N 53°33' E 006°38'0 0.0
2015-Aug-21 19:18N 53°33' E 006°38'0 0.0
2015-Aug-21 18:32N 53°33' E 006°38'6 6.1
2015-Aug-21 17:33N 53°29' E 006°47'2 2.1
2015-Aug-21 16:33N 53°31' E 006°44'5 5.2
2015-Aug-21 15:33N 53°27' E 006°49'8 8.1
2015-Aug-21 14:32N 53°32' E 006°40'1 0.8
2015-Aug-21 13:18N 53°33' E 006°38'0 0.0
2015-Aug-21 12:27N 53°33' E 006°38'0 0.0
2015-Aug-21 11:15N 53°33' E 006°38'912.5
2015-Aug-21 10:33N 53°27' E 006°49'9 8.7
2015-Aug-21 09:32N 53°33' E 006°38'0 0.0
2015-Aug-21 08:28N 53°33' E 006°38'0 0.0
2015-Aug-21 07:24N 53°33' E 006°38'0 0.0
2015-Aug-21 06:31N 53°33' E 006°38'9 9.2
2015-Aug-21 05:33N 53°27' E 006°49'7 7.2
2015-Aug-21 04:33N 53°32' E 006°41'8 7.6
2015-Aug-21 03:33N 53°27' E 006°50'8 8.2
2015-Aug-21 02:33N 53°33' E 006°40'1 0.8
2015-Aug-21 01:17N 53°33' E 006°38'0 0.0
2015-Aug-21 00:31N 53°33' E 006°38'0 0.1
2015-Aug-20 23:28N 53°33' E 006°38'9 9.8
2015-Aug-20 22:33N 53°27' E 006°49'9 2.9
2015-Aug-20 19:28N 53°33' E 006°38'910.1
2015-Aug-20 18:33N 53°27' E 006°50'0 0.4
2015-Aug-20 17:33N 53°27' E 006°50'9 8.5
2015-Aug-20 16:33N 53°33' E 006°39'8 8.3
2015-Aug-20 15:32N 53°27' E 006°49'9 9.3
2015-Aug-20 14:33N 53°33' E 006°38'0 0.0
2015-Aug-20 13:08N 53°33' E 006°38'6 3.6
2015-Aug-20 11:33N 53°29' E 006°45'6 5.3
2015-Aug-20 10:30N 53°33' E 006°38'0 0.0
2015-Aug-20 09:20N 53°33' E 006°38'0 0.0
2015-Aug-20 07:33N 53°33' E 006°38'0 0.2
2015-Aug-20 06:33N 53°33' E 006°38'9 8.8
2015-Aug-20 05:33N 53°27' E 006°49'7 7.1
2015-Aug-20 04:33N 53°32' E 006°41'7 7.1
2015-Aug-20 03:30N 53°27' E 006°50'9 9.1
2015-Aug-20 02:30N 53°33' E 006°38'0 0.0
2015-Aug-20 01:30N 53°33' E 006°38'0 0.0
2015-Aug-20 00:29N 53°33' E 006°38'0 0.0
2015-Aug-19 23:22N 53°33' E 006°38'0 0.0
2015-Aug-19 21:28N 53°33' E 006°38'9 9.4
2015-Aug-19 20:31N 53°27' E 006°49'0 0.3
2015-Aug-19 19:32N 53°27' E 006°50'0 0.0
2015-Aug-19 18:30N 53°27' E 006°50'2 1.9
2015-Aug-19 17:33N 53°28' E 006°49'4 4.4
2015-Aug-19 16:33N 53°31' E 006°43'6 5.3
2015-Aug-19 15:26N 53°27' E 006°50'910.2
2015-Aug-19 14:33N 53°33' E 006°38'0 0.1
2015-Aug-19 12:32N 53°33' E 006°39'0 0.2
2015-Aug-19 11:32N 53°33' E 006°38'5 5.2
2015-Aug-19 10:33N 53°29' E 006°44'5 3.6
2015-Aug-19 09:09N 53°33' E 006°38'915.0
2015-Aug-19 08:33N 53°28' E 006°50'1 1.0
2015-Aug-19 07:31N 53°27' E 006°49'0 0.2
2015-Aug-19 06:25N 53°27' E 006°50'0 0.3
2015-Aug-19 05:33N 53°27' E 006°49'5 4.9
2015-Aug-19 04:33N 53°30' E 006°43'5 5.2
2015-Aug-19 03:33N 53°27' E 006°50'0 0.0
2015-Aug-19 02:33N 53°27' E 006°50'9 8.3
2015-Aug-19 01:30N 53°33' E 006°39'0 0.0
2015-Aug-19 00:30N 53°33' E 006°39'0 0.0
2015-Aug-18 23:32N 53°33' E 006°39'0 0.0
2015-Aug-18 22:32N 53°33' E 006°39'0 0.1
2015-Aug-18 21:32N 53°33' E 006°39'0 0.1
2015-Aug-18 20:32N 53°33' E 006°39'9 8.8
2015-Aug-18 19:33N 53°27' E 006°49'0 0.0
2015-Aug-18 18:33N 53°27' E 006°49'1 1.4
2015-Aug-18 17:33N 53°28' E 006°49'7 6.7
2015-Aug-18 16:32N 53°32' E 006°40'8 8.0
2015-Aug-18 15:33N 53°27' E 006°50'2 0.3
2015-Aug-18 09:33N 53°28' E 006°48'4 4.0
2015-Aug-18 08:33N 53°31' E 006°43'6 5.6
2015-Aug-18 07:33N 53°27' E 006°49'0 0.2
2015-Aug-18 06:29N 53°27' E 006°49'0 0.0
2015-Aug-18 05:30N 53°27' E 006°49'8 8.2
2015-Aug-18 04:32N 53°33' E 006°40'824.0
2015-Aug-18 04:11N 53°27' E 006°50'0 6.8
2015-Aug-18 04:08N 53°27' E 006°49'0 0.2
2015-Aug-18 03:31N 53°27' E 006°50'0 0.2
2015-Aug-18 02:33N 53°27' E 006°50'9 8.7
2015-Aug-18 01:33N 53°33' E 006°40'  

Dump ship's entire track history